TimeCST,TemperatureF,Dew PointF,Humidity,Sea Level PressureIn,VisibilityMPH,Wind Direction,Wind SpeedMPH,Gust SpeedMPH,PrecipitationIn,Events,Conditions,WindDirDegrees,DateUTC
12:58 AM,69.4,66.4,90,29.92,6.2,North,12.7,-,N/A,,Mostly Cloudy,360,2013-01-01 06:58:00
1:58 AM,69.3,66.2,90,29.91,6.2,North,10.4,-,N/A,,Mostly Cloudy,350,2013-01-01 07:58:00
2:58 AM,68.7,66.0,91,29.90,6.2,North,11.5,-,N/A,,Mostly Cloudy,350,2013-01-01 08:58:00
3:58 AM,69.6,66.4,89,29.90,6.2,NW,11.5,-,N/A,,Overcast,320,2013-01-01 09:58:00
4:58 AM,67.8,66.4,95,29.93,6.2,North,8.1,-,N/A,,Mostly Cloudy,350,2013-01-01 10:58:00
5:58 AM,68.7,66.7,93,29.95,6.2,North,9.2,-,N/A,,Overcast,360,2013-01-01 11:58:00
6:00 AM,66,63,87,,6,North,2.3,,,,Haze,0,2013-01-01 12:00:00
6:58 AM,67.8,66.4,95,29.96,6.2,NNW,10.4,-,N/A,,Partly Cloudy,330,2013-01-01 12:58:00
7:58 AM,72.7,65.1,77,29.97,6.2,NNW,11.5,-,N/A,,Clear,340,2013-01-01 13:58:00
8:58 AM,74.3,65.7,74,29.98,6.2,NNW,10.4,-,N/A,,Clear,340,2013-01-01 14:58:00
9:00 AM,74,67,72,,6,North,4.6,,,,Haze,0,2013-01-01 15:00:00
9:58 AM,77.4,64.4,64,29.96,6.2,NNW,12.7,17.3,N/A,,Scattered Clouds,330,2013-01-01 15:58:00
10:58 AM,79.7,64.2,59,29.94,6.2,NW,9.2,-,N/A,,Mostly Cloudy,320,2013-01-01 16:58:00
11:58 AM,79.3,63.3,58,29.92,6.2,NNW,5.8,-,N/A,,Overcast,340,2013-01-01 17:58:00
12:00 PM,83,71,60,,6,North,2.3,,,,Haze,0,2013-01-01 18:00:00
12:58 PM,80.6,62.8,54,29.88,6.2,Variable,2.3,-,N/A,,Overcast,0,2013-01-01 18:58:00
1:58 PM,80.8,62.1,53,29.85,6.2,Variable,2.3,-,N/A,,Overcast,0,2013-01-01 19:58:00
2:58 PM,81.1,62.2,52,29.83,6.2,Calm,Calm,-,N/A,,Overcast,0,2013-01-01 20:58:00
3:00 PM,87,71,50,,6,North,2.3,,,,Haze,0,2013-01-01 21:00:00
3:58 PM,80.8,62.4,53,29.83,6.2,ENE,8.1,-,N/A,,Mostly Cloudy,70,2013-01-01 21:58:00
4:58 PM,80.6,62.6,54,29.83,6.2,NNW,4.6,-,N/A,,Clear,330,2013-01-01 22:58:00
5:58 PM,76.6,64.2,65,29.85,6.2,North,6.9,-,N/A,,Mostly Cloudy,350,2013-01-01 23:58:00
6:00 PM,77,69,71,,6,North,2.3,,,,Haze,0,2013-01-02 00:00:00
6:58 PM,75.9,64.2,67,29.88,6.2,NNW,5.8,-,N/A,,Overcast,330,2013-01-02 00:58:00
7:58 PM,74.8,65.1,72,29.88,6.2,North,6.9,-,N/A,,Overcast,350,2013-01-02 01:58:00
8:58 PM,74.5,66.6,76,29.90,6.2,North,5.8,-,N/A,,Overcast,350,2013-01-02 02:58:00
9:58 PM,72.9,66.6,81,29.88,6.2,North,5.8,-,N/A,,Overcast,350,2013-01-02 03:58:00
10:58 PM,72.7,66.0,80,29.88,6.2,North,8.1,-,N/A,,Overcast,360,2013-01-02 04:58:00
11:58 PM,70.0,66.0,87,29.87,6.2,North,6.9,-,N/A,,Mostly Cloudy,350,2013-01-02 05:58:00